sensor_id;sensor_type;location;lat;lon;timestamp;P1;durP1;ratioP1;P2;durP2;ratioP2
1779;SDS011;10019;46.670;14.260;2023-03-20T00:01:34;9.90;;;6.83;;
1779;SDS011;10019;46.670;14.260;2023-03-20T00:04:07;5.83;;;5.23;;
1779;SDS011;10019;46.670;14.260;2023-03-20T00:06:43;7.57;;;5.57;;
1779;SDS011;10019;46.670;14.260;2023-03-20T00:09:14;6.93;;;5.70;;
1779;SDS011;10019;46.670;14.260;2023-03-20T00:11:47;7.50;;;6.10;;
1779;SDS011;10019;46.670;14.260;2023-03-20T00:14:21;7.30;;;5.63;;
1779;SDS011;10019;46.670;14.260;2023-03-20T00:16:53;7.60;;;6.10;;
1779;SDS011;10019;46.670;14.260;2023-03-20T00:19:26;6.57;;;5.60;;
1779;SDS011;10019;46.670;14.260;2023-03-20T00:22:01;10.07;;;5.63;;
1779;SDS011;10019;46.670;14.260;2023-03-20T00:24:33;7.87;;;5.80;;
1779;SDS011;10019;46.670;14.260;2023-03-20T00:27:04;9.80;;;5.70;;
1779;SDS011;10019;46.670;14.260;2023-03-20T00:29:36;7.07;;;5.30;;
1779;SDS011;10019;46.670;14.260;2023-03-20T00:32:08;9.10;;;5.47;;
1779;SDS011;10019;46.670;14.260;2023-03-20T00:34:42;7.17;;;6.07;;
1779;SDS011;10019;46.670;14.260;2023-03-20T00:37:15;7.47;;;5.97;;
1779;SDS011;10019;46.670;14.260;2023-03-20T00:39:47;7.10;;;5.60;;
1779;SDS011;10019;46.670;14.260;2023-03-20T00:42:19;8.90;;;6.00;;
1779;SDS011;10019;46.670;14.260;2023-03-20T00:44:52;8.83;;;6.30;;
1779;SDS011;10019;46.670;14.260;2023-03-20T00:47:24;7.30;;;5.70;;
1779;SDS011;10019;46.670;14.260;2023-03-20T00:49:56;8.83;;;5.70;;
1779;SDS011;10019;46.670;14.260;2023-03-20T00:52:29;7.00;;;5.77;;
1779;SDS011;10019;46.670;14.260;2023-03-20T00:55:01;7.87;;;5.83;;
1779;SDS011;10019;46.670;14.260;2023-03-20T00:57:35;6.70;;;5.70;;
1779;SDS011;10019;46.670;14.260;2023-03-20T01:00:17;6.70;;;5.83;;
1779;SDS011;10019;46.670;14.260;2023-03-20T01:02:53;8.83;;;5.67;;
1779;SDS011;10019;46.670;14.260;2023-03-20T01:05:26;7.17;;;6.10;;
1779;SDS011;10019;46.670;14.260;2023-03-20T01:08:00;9.80;;;5.70;;
1779;SDS011;10019;46.670;14.260;2023-03-20T01:10:31;7.57;;;5.60;;
1779;SDS011;10019;46.670;14.260;2023-03-20T01:13:04;6.90;;;5.70;;
1779;SDS011;10019;46.670;14.260;2023-03-20T01:15:37;7.40;;;5.53;;
1779;SDS011;10019;46.670;14.260;2023-03-20T01:18:09;8.27;;;6.50;;
1779;SDS011;10019;46.670;14.260;2023-03-20T01:20:43;7.83;;;5.63;;
1779;SDS011;10019;46.670;14.260;2023-03-20T01:23:16;8.17;;;5.30;;
1779;SDS011;10019;46.670;14.260;2023-03-20T01:25:48;6.30;;;5.30;;
1779;SDS011;10019;46.670;14.260;2023-03-20T01:28:21;6.53;;;4.93;;
1779;SDS011;10019;46.670;14.260;2023-03-20T01:30:53;5.57;;;5.03;;
1779;SDS011;10019;46.670;14.260;2023-03-20T01:33:25;9.10;;;5.37;;
1779;SDS011;10019;46.670;14.260;2023-03-20T01:35:58;10.40;;;4.90;;
1779;SDS011;10019;46.670;14.260;2023-03-20T01:38:31;6.13;;;5.23;;
1779;SDS011;10019;46.670;14.260;2023-03-20T01:41:04;6.43;;;5.20;;
1779;SDS011;10019;46.670;14.260;2023-03-20T01:43:37;13.67;;;4.57;;
1779;SDS011;10019;46.670;14.260;2023-03-20T01:46:16;7.63;;;5.03;;
1779;SDS011;10019;46.670;14.260;2023-03-20T01:48:56;5.50;;;4.87;;
1779;SDS011;10019;46.670;14.260;2023-03-20T01:51:31;7.50;;;5.40;;
1779;SDS011;10019;46.670;14.260;2023-03-20T01:54:06;5.40;;;4.43;;
1779;SDS011;10019;46.670;14.260;2023-03-20T01:56:40;7.30;;;5.43;;
1779;SDS011;10019;46.670;14.260;2023-03-20T01:59:15;5.47;;;4.90;;
1779;SDS011;10019;46.670;14.260;2023-03-20T02:01:49;5.87;;;4.70;;
1779;SDS011;10019;46.670;14.260;2023-03-20T02:04:22;8.50;;;5.40;;
1779;SDS011;10019;46.670;14.260;2023-03-20T02:06:56;8.90;;;5.83;;
1779;SDS011;10019;46.670;14.260;2023-03-20T02:09:29;4.97;;;4.47;;
1779;SDS011;10019;46.670;14.260;2023-03-20T02:12:00;6.40;;;4.83;;
1779;SDS011;10019;46.670;14.260;2023-03-20T02:14:33;9.00;;;5.37;;
1779;SDS011;10019;46.670;14.260;2023-03-20T02:17:07;9.57;;;5.30;;
1779;SDS011;10019;46.670;14.260;2023-03-20T02:19:41;5.80;;;4.80;;
1779;SDS011;10019;46.670;14.260;2023-03-20T02:25:29;6.80;;;5.07;;
1779;SDS011;10019;46.670;14.260;2023-03-20T02:28:33;7.00;;;5.17;;
1779;SDS011;10019;46.670;14.260;2023-03-20T02:31:24;5.73;;;5.03;;
1779;SDS011;10019;46.670;14.260;2023-03-20T02:34:28;8.00;;;4.70;;
1779;SDS011;10019;46.670;14.260;2023-03-20T02:37:26;6.20;;;5.13;;
1779;SDS011;10019;46.670;14.260;2023-03-20T02:40:11;7.37;;;4.80;;
1779;SDS011;10019;46.670;14.260;2023-03-20T02:42:49;6.93;;;4.83;;
1779;SDS011;10019;46.670;14.260;2023-03-20T02:45:27;5.70;;;4.67;;
1779;SDS011;10019;46.670;14.260;2023-03-20T02:48:03;7.43;;;4.83;;
1779;SDS011;10019;46.670;14.260;2023-03-20T02:50:40;5.70;;;4.90;;
1779;SDS011;10019;46.670;14.260;2023-03-20T02:53:22;8.13;;;5.37;;
1779;SDS011;10019;46.670;14.260;2023-03-20T02:56:01;6.53;;;5.33;;
1779;SDS011;10019;46.670;14.260;2023-03-20T02:58:38;7.00;;;5.17;;
1779;SDS011;10019;46.670;14.260;2023-03-20T03:01:14;8.70;;;5.67;;
1779;SDS011;10019;46.670;14.260;2023-03-20T03:03:49;6.13;;;5.13;;
1779;SDS011;10019;46.670;14.260;2023-03-20T03:06:25;6.50;;;5.00;;
1779;SDS011;10019;46.670;14.260;2023-03-20T03:09:00;7.30;;;6.10;;
1779;SDS011;10019;46.670;14.260;2023-03-20T03:11:35;9.43;;;5.47;;
1779;SDS011;10019;46.670;14.260;2023-03-20T03:14:08;8.43;;;5.87;;
1779;SDS011;10019;46.670;14.260;2023-03-20T03:16:44;7.73;;;6.17;;
1779;SDS011;10019;46.670;14.260;2023-03-20T03:19:18;6.17;;;5.17;;
1779;SDS011;10019;46.670;14.260;2023-03-20T03:21:53;6.60;;;4.80;;
1779;SDS011;10019;46.670;14.260;2023-03-20T03:24:30;11.80;;;6.10;;
1779;SDS011;10019;46.670;14.260;2023-03-20T03:27:03;9.93;;;5.70;;
1779;SDS011;10019;46.670;14.260;2023-03-20T03:29:38;7.10;;;6.13;;
1779;SDS011;10019;46.670;14.260;2023-03-20T03:32:18;7.70;;;5.90;;
1779;SDS011;10019;46.670;14.260;2023-03-20T03:34:52;9.33;;;5.77;;
1779;SDS011;10019;46.670;14.260;2023-03-20T03:37:35;7.00;;;4.87;;
1779;SDS011;10019;46.670;14.260;2023-03-20T03:40:15;8.60;;;6.20;;
1779;SDS011;10019;46.670;14.260;2023-03-20T03:42:51;6.03;;;5.27;;
1779;SDS011;10019;46.670;14.260;2023-03-20T03:45:28;7.83;;;5.40;;
1779;SDS011;10019;46.670;14.260;2023-03-20T03:48:04;6.20;;;4.80;;
1779;SDS011;10019;46.670;14.260;2023-03-20T03:50:39;6.23;;;5.53;;
1779;SDS011;10019;46.670;14.260;2023-03-20T03:53:18;7.70;;;5.67;;
1779;SDS011;10019;46.670;14.260;2023-03-20T03:55:53;6.77;;;5.90;;
1779;SDS011;10019;46.670;14.260;2023-03-20T03:58:27;10.00;;;6.40;;
1779;SDS011;10019;46.670;14.260;2023-03-20T04:01:01;7.73;;;5.57;;
1779;SDS011;10019;46.670;14.260;2023-03-20T04:03:34;5.83;;;5.00;;
1779;SDS011;10019;46.670;14.260;2023-03-20T04:06:10;6.93;;;6.23;;
1779;SDS011;10019;46.670;14.260;2023-03-20T04:08:42;7.53;;;6.13;;
1779;SDS011;10019;46.670;14.260;2023-03-20T04:11:16;7.27;;;5.43;;
1779;SDS011;10019;46.670;14.260;2023-03-20T04:13:49;7.10;;;5.83;;
1779;SDS011;10019;46.670;14.260;2023-03-20T04:16:22;9.23;;;5.90;;
1779;SDS011;10019;46.670;14.260;2023-03-20T04:18:54;8.13;;;5.17;;
1779;SDS011;10019;46.670;14.260;2023-03-20T04:21:26;7.53;;;5.63;;
1779;SDS011;10019;46.670;14.260;2023-03-20T04:23:58;6.40;;;4.83;;
1779;SDS011;10019;46.670;14.260;2023-03-20T04:26:31;5.67;;;5.07;;
1779;SDS011;10019;46.670;14.260;2023-03-20T04:29:03;6.13;;;5.37;;
1779;SDS011;10019;46.670;14.260;2023-03-20T04:31:35;8.37;;;5.47;;
1779;SDS011;10019;46.670;14.260;2023-03-20T04:34:06;6.40;;;5.30;;
1779;SDS011;10019;46.670;14.260;2023-03-20T04:36:38;7.13;;;5.30;;
1779;SDS011;10019;46.670;14.260;2023-03-20T04:39:10;6.30;;;5.37;;
1779;SDS011;10019;46.670;14.260;2023-03-20T04:41:44;6.10;;;5.20;;
1779;SDS011;10019;46.670;14.260;2023-03-20T04:44:16;6.23;;;5.60;;
1779;SDS011;10019;46.670;14.260;2023-03-20T04:46:48;6.70;;;6.00;;
1779;SDS011;10019;46.670;14.260;2023-03-20T04:49:19;6.23;;;5.27;;
1779;SDS011;10019;46.670;14.260;2023-03-20T04:51:51;5.83;;;5.13;;
1779;SDS011;10019;46.670;14.260;2023-03-20T04:54:23;6.33;;;5.20;;
1779;SDS011;10019;46.670;14.260;2023-03-20T04:56:56;8.33;;;6.10;;
1779;SDS011;10019;46.670;14.260;2023-03-20T04:59:28;5.93;;;5.20;;
1779;SDS011;10019;46.670;14.260;2023-03-20T05:01:59;6.73;;;5.67;;
1779;SDS011;10019;46.670;14.260;2023-03-20T05:04:31;5.17;;;4.67;;
1779;SDS011;10019;46.670;14.260;2023-03-20T05:07:03;8.23;;;5.10;;
1779;SDS011;10019;46.670;14.260;2023-03-20T05:09:34;7.03;;;4.70;;
1779;SDS011;10019;46.670;14.260;2023-03-20T05:12:08;9.83;;;6.03;;
1779;SDS011;10019;46.670;14.260;2023-03-20T05:14:40;5.67;;;4.73;;
1779;SDS011;10019;46.670;14.260;2023-03-20T05:17:12;6.47;;;4.83;;
1779;SDS011;10019;46.670;14.260;2023-03-20T05:19:43;6.17;;;5.57;;
1779;SDS011;10019;46.670;14.260;2023-03-20T05:22:15;8.93;;;6.37;;
1779;SDS011;10019;46.670;14.260;2023-03-20T05:24:47;8.13;;;5.73;;
1779;SDS011;10019;46.670;14.260;2023-03-20T05:27:20;8.13;;;5.87;;
1779;SDS011;10019;46.670;14.260;2023-03-20T05:29:52;14.23;;;6.13;;
1779;SDS011;10019;46.670;14.260;2023-03-20T05:32:23;6.70;;;6.00;;
1779;SDS011;10019;46.670;14.260;2023-03-20T05:34:55;9.53;;;6.77;;
1779;SDS011;10019;46.670;14.260;2023-03-20T05:37:27;8.10;;;6.60;;
1779;SDS011;10019;46.670;14.260;2023-03-20T05:39:58;8.23;;;6.60;;
1779;SDS011;10019;46.670;14.260;2023-03-20T05:42:31;6.00;;;5.03;;
1779;SDS011;10019;46.670;14.260;2023-03-20T05:45:03;6.50;;;5.87;;
1779;SDS011;10019;46.670;14.260;2023-03-20T05:47:35;6.77;;;5.80;;
1779;SDS011;10019;46.670;14.260;2023-03-20T05:50:07;6.87;;;5.17;;
1779;SDS011;10019;46.670;14.260;2023-03-20T05:52:40;5.63;;;4.90;;
1779;SDS011;10019;46.670;14.260;2023-03-20T05:55:12;5.77;;;5.17;;
1779;SDS011;10019;46.670;14.260;2023-03-20T05:57:45;7.07;;;4.80;;
1779;SDS011;10019;46.670;14.260;2023-03-20T06:00:17;6.33;;;5.37;;
1779;SDS011;10019;46.670;14.260;2023-03-20T06:02:49;7.00;;;5.80;;
1779;SDS011;10019;46.670;14.260;2023-03-20T06:05:21;7.07;;;5.80;;
1779;SDS011;10019;46.670;14.260;2023-03-20T06:07:52;5.33;;;4.70;;
1779;SDS011;10019;46.670;14.260;2023-03-20T06:10:24;7.50;;;6.30;;
1779;SDS011;10019;46.670;14.260;2023-03-20T06:12:58;9.73;;;7.20;;
1779;SDS011;10019;46.670;14.260;2023-03-20T06:15:30;10.47;;;7.00;;
1779;SDS011;10019;46.670;14.260;2023-03-20T06:18:02;12.70;;;8.40;;
1779;SDS011;10019;46.670;14.260;2023-03-20T06:20:34;11.70;;;7.47;;
1779;SDS011;10019;46.670;14.260;2023-03-20T06:23:06;12.20;;;8.23;;
1779;SDS011;10019;46.670;14.260;2023-03-20T06:25:37;10.10;;;7.50;;
1779;SDS011;10019;46.670;14.260;2023-03-20T06:28:10;10.80;;;7.00;;
1779;SDS011;10019;46.670;14.260;2023-03-20T06:30:42;12.40;;;7.90;;
1779;SDS011;10019;46.670;14.260;2023-03-20T06:33:14;8.53;;;7.60;;
1779;SDS011;10019;46.670;14.260;2023-03-20T06:35:46;13.43;;;8.10;;
1779;SDS011;10019;46.670;14.260;2023-03-20T06:38:18;11.47;;;8.27;;
1779;SDS011;10019;46.670;14.260;2023-03-20T06:40:50;12.57;;;8.47;;
1779;SDS011;10019;46.670;14.260;2023-03-20T06:43:23;13.27;;;9.50;;
1779;SDS011;10019;46.670;14.260;2023-03-20T06:45:54;11.03;;;8.37;;
1779;SDS011;10019;46.670;14.260;2023-03-20T06:48:26;8.80;;;7.13;;
1779;SDS011;10019;46.670;14.260;2023-03-20T06:50:58;12.00;;;7.27;;
1779;SDS011;10019;46.670;14.260;2023-03-20T06:53:30;18.33;;;10.20;;
1779;SDS011;10019;46.670;14.260;2023-03-20T06:56:01;13.30;;;10.47;;
1779;SDS011;10019;46.670;14.260;2023-03-20T06:58:34;21.40;;;11.50;;
1779;SDS011;10019;46.670;14.260;2023-03-20T07:01:08;13.40;;;9.50;;
1779;SDS011;10019;46.670;14.260;2023-03-20T07:03:40;10.93;;;8.50;;
1779;SDS011;10019;46.670;14.260;2023-03-20T07:06:12;17.90;;;9.30;;
1779;SDS011;10019;46.670;14.260;2023-03-20T07:08:44;12.73;;;8.57;;
1779;SDS011;10019;46.670;14.260;2023-03-20T07:11:16;9.33;;;6.83;;
1779;SDS011;10019;46.670;14.260;2023-03-20T07:13:49;13.50;;;7.47;;
1779;SDS011;10019;46.670;14.260;2023-03-20T07:16:20;9.40;;;6.53;;
1779;SDS011;10019;46.670;14.260;2023-03-20T07:18:52;10.67;;;7.30;;
1779;SDS011;10019;46.670;14.260;2023-03-20T07:21:24;9.30;;;7.30;;
1779;SDS011;10019;46.670;14.260;2023-03-20T07:23:56;10.60;;;7.80;;
1779;SDS011;10019;46.670;14.260;2023-03-20T07:26:28;13.53;;;7.73;;
1779;SDS011;10019;46.670;14.260;2023-03-20T07:29:01;9.47;;;7.50;;
1779;SDS011;10019;46.670;14.260;2023-03-20T07:31:33;10.17;;;7.90;;
1779;SDS011;10019;46.670;14.260;2023-03-20T07:34:04;8.60;;;7.20;;
1779;SDS011;10019;46.670;14.260;2023-03-20T07:36:37;21.07;;;14.23;;
1779;SDS011;10019;46.670;14.260;2023-03-20T07:39:08;17.73;;;12.10;;
1779;SDS011;10019;46.670;14.260;2023-03-20T07:41:41;14.30;;;8.40;;
1779;SDS011;10019;46.670;14.260;2023-03-20T07:44:14;11.17;;;8.50;;
1779;SDS011;10019;46.670;14.260;2023-03-20T07:46:48;13.30;;;7.87;;
1779;SDS011;10019;46.670;14.260;2023-03-20T07:49:20;10.00;;;7.53;;
1779;SDS011;10019;46.670;14.260;2023-03-20T07:51:51;11.73;;;8.47;;
1779;SDS011;10019;46.670;14.260;2023-03-20T07:54:24;10.80;;;8.37;;
1779;SDS011;10019;46.670;14.260;2023-03-20T07:56:56;10.17;;;7.23;;
1779;SDS011;10019;46.670;14.260;2023-03-20T07:59:29;9.47;;;8.33;;
1779;SDS011;10019;46.670;14.260;2023-03-20T08:02:01;12.00;;;8.43;;
1779;SDS011;10019;46.670;14.260;2023-03-20T08:04:32;11.47;;;8.47;;
1779;SDS011;10019;46.670;14.260;2023-03-20T08:07:04;11.60;;;7.70;;
1779;SDS011;10019;46.670;14.260;2023-03-20T08:09:36;9.57;;;6.90;;
1779;SDS011;10019;46.670;14.260;2023-03-20T08:12:08;9.20;;;7.37;;
1779;SDS011;10019;46.670;14.260;2023-03-20T08:14:41;8.67;;;6.67;;
1779;SDS011;10019;46.670;14.260;2023-03-20T08:17:13;10.27;;;6.73;;
1779;SDS011;10019;46.670;14.260;2023-03-20T08:19:45;8.33;;;7.00;;
1779;SDS011;10019;46.670;14.260;2023-03-20T08:22:16;8.93;;;6.90;;
1779;SDS011;10019;46.670;14.260;2023-03-20T08:24:48;10.47;;;7.70;;
1779;SDS011;10019;46.670;14.260;2023-03-20T08:27:20;10.73;;;7.47;;
1779;SDS011;10019;46.670;14.260;2023-03-20T08:29:53;9.70;;;7.70;;
1779;SDS011;10019;46.670;14.260;2023-03-20T08:32:25;9.90;;;7.70;;
1779;SDS011;10019;46.670;14.260;2023-03-20T08:34:56;12.00;;;6.60;;
1779;SDS011;10019;46.670;14.260;2023-03-20T08:37:28;14.60;;;7.90;;
1779;SDS011;10019;46.670;14.260;2023-03-20T08:40:00;7.80;;;6.90;;
1779;SDS011;10019;46.670;14.260;2023-03-20T08:42:32;13.63;;;7.63;;
1779;SDS011;10019;46.670;14.260;2023-03-20T08:45:05;10.97;;;7.13;;
1779;SDS011;10019;46.670;14.260;2023-03-20T08:47:38;9.23;;;6.80;;
1779;SDS011;10019;46.670;14.260;2023-03-20T08:50:10;14.40;;;7.30;;
1779;SDS011;10019;46.670;14.260;2023-03-20T08:52:42;8.43;;;6.73;;
1779;SDS011;10019;46.670;14.260;2023-03-20T08:55:16;8.07;;;6.90;;
1779;SDS011;10019;46.670;14.260;2023-03-20T08:57:48;10.50;;;8.03;;
1779;SDS011;10019;46.670;14.260;2023-03-20T09:00:22;8.53;;;7.50;;
1779;SDS011;10019;46.670;14.260;2023-03-20T09:02:54;12.30;;;8.40;;
1779;SDS011;10019;46.670;14.260;2023-03-20T09:05:26;10.87;;;7.97;;
1779;SDS011;10019;46.670;14.260;2023-03-20T09:07:58;10.20;;;8.23;;
1779;SDS011;10019;46.670;14.260;2023-03-20T09:10:30;14.27;;;8.30;;
1779;SDS011;10019;46.670;14.260;2023-03-20T09:13:03;12.60;;;7.70;;
1779;SDS011;10019;46.670;14.260;2023-03-20T09:15:36;13.70;;;8.37;;
1779;SDS011;10019;46.670;14.260;2023-03-20T09:18:08;11.20;;;8.20;;
1779;SDS011;10019;46.670;14.260;2023-03-20T09:20:40;9.50;;;7.83;;
1779;SDS011;10019;46.670;14.260;2023-03-20T09:23:14;9.77;;;7.80;;
1779;SDS011;10019;46.670;14.260;2023-03-20T09:25:46;22.80;;;14.33;;
1779;SDS011;10019;46.670;14.260;2023-03-20T09:28:18;24.13;;;14.20;;
1779;SDS011;10019;46.670;14.260;2023-03-20T09:30:54;14.60;;;11.13;;
1779;SDS011;10019;46.670;14.260;2023-03-20T09:33:26;11.87;;;8.73;;
1779;SDS011;10019;46.670;14.260;2023-03-20T09:35:58;11.60;;;8.23;;
1779;SDS011;10019;46.670;14.260;2023-03-20T09:38:30;10.70;;;8.20;;
1779;SDS011;10019;46.670;14.260;2023-03-20T09:41:02;10.00;;;7.30;;
1779;SDS011;10019;46.670;14.260;2023-03-20T09:43:37;8.47;;;7.30;;
1779;SDS011;10019;46.670;14.260;2023-03-20T09:46:31;11.87;;;7.60;;
1779;SDS011;10019;46.670;14.260;2023-03-20T09:49:12;11.97;;;7.27;;
1779;SDS011;10019;46.670;14.260;2023-03-20T09:51:49;9.87;;;6.90;;
1779;SDS011;10019;46.670;14.260;2023-03-20T09:54:23;12.53;;;7.67;;
1779;SDS011;10019;46.670;14.260;2023-03-20T09:56:57;11.33;;;7.90;;
1779;SDS011;10019;46.670;14.260;2023-03-20T09:59:31;12.67;;;7.97;;
1779;SDS011;10019;46.670;14.260;2023-03-20T10:02:06;15.13;;;9.03;;
1779;SDS011;10019;46.670;14.260;2023-03-20T10:04:43;13.27;;;8.27;;
1779;SDS011;10019;46.670;14.260;2023-03-20T10:07:17;9.60;;;7.73;;
1779;SDS011;10019;46.670;14.260;2023-03-20T10:09:49;12.10;;;7.60;;
1779;SDS011;10019;46.670;14.260;2023-03-20T10:12:35;9.30;;;7.33;;
1779;SDS011;10019;46.670;14.260;2023-03-20T10:15:18;9.77;;;7.00;;
1779;SDS011;10019;46.670;14.260;2023-03-20T10:17:58;7.20;;;6.50;;
1779;SDS011;10019;46.670;14.260;2023-03-20T10:20:33;8.67;;;6.87;;
1779;SDS011;10019;46.670;14.260;2023-03-20T10:23:06;8.87;;;6.63;;
1779;SDS011;10019;46.670;14.260;2023-03-20T10:25:44;15.60;;;7.87;;
1779;SDS011;10019;46.670;14.260;2023-03-20T10:28:18;7.93;;;7.13;;
1779;SDS011;10019;46.670;14.260;2023-03-20T10:30:55;11.43;;;7.13;;
1779;SDS011;10019;46.670;14.260;2023-03-20T10:33:40;10.10;;;7.03;;
1779;SDS011;10019;46.670;14.260;2023-03-20T10:36:22;7.83;;;6.60;;
1779;SDS011;10019;46.670;14.260;2023-03-20T10:39:09;11.13;;;7.40;;
1779;SDS011;10019;46.670;14.260;2023-03-20T10:41:46;8.50;;;7.60;;
1779;SDS011;10019;46.670;14.260;2023-03-20T10:44:25;10.73;;;6.57;;
1779;SDS011;10019;46.670;14.260;2023-03-20T10:47:01;13.27;;;7.57;;
1779;SDS011;10019;46.670;14.260;2023-03-20T10:49:37;7.43;;;6.73;;
1779;SDS011;10019;46.670;14.260;2023-03-20T10:52:11;9.40;;;6.47;;
1779;SDS011;10019;46.670;14.260;2023-03-20T10:54:47;11.50;;;8.20;;
1779;SDS011;10019;46.670;14.260;2023-03-20T10:57:21;10.53;;;7.83;;
1779;SDS011;10019;46.670;14.260;2023-03-20T10:59:54;11.53;;;7.57;;
1779;SDS011;10019;46.670;14.260;2023-03-20T11:02:28;9.90;;;6.93;;
1779;SDS011;10019;46.670;14.260;2023-03-20T11:05:04;8.37;;;6.37;;
1779;SDS011;10019;46.670;14.260;2023-03-20T11:07:50;7.83;;;7.00;;
1779;SDS011;10019;46.670;14.260;2023-03-20T11:10:24;13.40;;;6.93;;
1779;SDS011;10019;46.670;14.260;2023-03-20T11:12:58;7.50;;;6.80;;
1779;SDS011;10019;46.670;14.260;2023-03-20T11:15:44;10.07;;;8.00;;
1779;SDS011;10019;46.670;14.260;2023-03-20T11:18:16;8.60;;;7.37;;
1779;SDS011;10019;46.670;14.260;2023-03-20T11:20:50;10.20;;;7.27;;
1779;SDS011;10019;46.670;14.260;2023-03-20T11:23:24;10.90;;;8.30;;
1779;SDS011;10019;46.670;14.260;2023-03-20T11:25:57;12.63;;;7.40;;
1779;SDS011;10019;46.670;14.260;2023-03-20T11:28:31;12.50;;;7.87;;
1779;SDS011;10019;46.670;14.260;2023-03-20T11:31:05;13.57;;;7.93;;
1779;SDS011;10019;46.670;14.260;2023-03-20T11:33:38;12.07;;;8.43;;
1779;SDS011;10019;46.670;14.260;2023-03-20T11:36:18;11.10;;;8.13;;
1779;SDS011;10019;46.670;14.260;2023-03-20T11:38:52;9.03;;;7.90;;
1779;SDS011;10019;46.670;14.260;2023-03-20T11:41:30;9.43;;;7.63;;
1779;SDS011;10019;46.670;14.260;2023-03-20T11:44:01;8.00;;;7.07;;
1779;SDS011;10019;46.670;14.260;2023-03-20T11:46:33;10.10;;;6.90;;
1779;SDS011;10019;46.670;14.260;2023-03-20T11:49:06;9.50;;;7.97;;
1779;SDS011;10019;46.670;14.260;2023-03-20T11:51:48;9.80;;;7.97;;
1779;SDS011;10019;46.670;14.260;2023-03-20T11:54:20;9.53;;;7.80;;
1779;SDS011;10019;46.670;14.260;2023-03-20T11:56:53;10.53;;;8.30;;
1779;SDS011;10019;46.670;14.260;2023-03-20T11:59:28;10.27;;;7.87;;
1779;SDS011;10019;46.670;14.260;2023-03-20T12:02:02;8.70;;;7.80;;
1779;SDS011;10019;46.670;14.260;2023-03-20T12:04:43;9.97;;;8.00;;
1779;SDS011;10019;46.670;14.260;2023-03-20T12:07:18;8.63;;;7.83;;
1779;SDS011;10019;46.670;14.260;2023-03-20T12:09:53;9.10;;;7.67;;
1779;SDS011;10019;46.670;14.260;2023-03-20T12:12:32;9.43;;;8.40;;
1779;SDS011;10019;46.670;14.260;2023-03-20T12:15:09;12.03;;;8.50;;
1779;SDS011;10019;46.670;14.260;2023-03-20T12:17:46;12.03;;;9.37;;
1779;SDS011;10019;46.670;14.260;2023-03-20T12:20:24;11.33;;;9.50;;
1779;SDS011;10019;46.670;14.260;2023-03-20T12:25:55;10.70;;;9.27;;
1779;SDS011;10019;46.670;14.260;2023-03-20T12:28:32;11.77;;;9.90;;
1779;SDS011;10019;46.670;14.260;2023-03-20T12:31:11;12.47;;;9.73;;
1779;SDS011;10019;46.670;14.260;2023-03-20T12:33:49;9.80;;;8.17;;
1779;SDS011;10019;46.670;14.260;2023-03-20T12:36:24;11.13;;;9.93;;
1779;SDS011;10019;46.670;14.260;2023-03-20T12:39:03;11.57;;;8.57;;
1779;SDS011;10019;46.670;14.260;2023-03-20T12:41:38;10.53;;;9.53;;
1779;SDS011;10019;46.670;14.260;2023-03-20T12:44:19;15.50;;;9.43;;
1779;SDS011;10019;46.670;14.260;2023-03-20T12:47:08;11.87;;;9.70;;
1779;SDS011;10019;46.670;14.260;2023-03-20T12:49:47;12.80;;;9.23;;
1779;SDS011;10019;46.670;14.260;2023-03-20T12:52:25;11.47;;;9.43;;
1779;SDS011;10019;46.670;14.260;2023-03-20T12:55:14;13.03;;;10.00;;
1779;SDS011;10019;46.670;14.260;2023-03-20T12:57:55;10.93;;;9.43;;
1779;SDS011;10019;46.670;14.260;2023-03-20T13:00:32;11.50;;;10.33;;
1779;SDS011;10019;46.670;14.260;2023-03-20T13:03:10;11.47;;;10.20;;
1779;SDS011;10019;46.670;14.260;2023-03-20T13:06:00;15.17;;;11.47;;
1779;SDS011;10019;46.670;14.260;2023-03-20T13:08:37;18.70;;;11.77;;
1779;SDS011;10019;46.670;14.260;2023-03-20T13:11:20;17.40;;;15.43;;
1779;SDS011;10019;46.670;14.260;2023-03-20T13:13:57;13.10;;;11.03;;
1779;SDS011;10019;46.670;14.260;2023-03-20T13:16:34;15.07;;;12.17;;
1779;SDS011;10019;46.670;14.260;2023-03-20T13:19:11;12.57;;;10.87;;
1779;SDS011;10019;46.670;14.260;2023-03-20T13:21:47;12.23;;;9.70;;
1779;SDS011;10019;46.670;14.260;2023-03-20T13:24:26;12.17;;;9.83;;
1779;SDS011;10019;46.670;14.260;2023-03-20T13:27:14;11.87;;;9.60;;
1779;SDS011;10019;46.670;14.260;2023-03-20T13:29:52;12.17;;;10.47;;
1779;SDS011;10019;46.670;14.260;2023-03-20T13:32:30;12.60;;;10.03;;
1779;SDS011;10019;46.670;14.260;2023-03-20T13:35:16;13.97;;;10.60;;
1779;SDS011;10019;46.670;14.260;2023-03-20T13:37:55;11.53;;;10.10;;
1779;SDS011;10019;46.670;14.260;2023-03-20T13:40:28;12.20;;;10.67;;
1779;SDS011;10019;46.670;14.260;2023-03-20T13:43:05;11.90;;;10.23;;
1779;SDS011;10019;46.670;14.260;2023-03-20T13:45:43;14.37;;;12.87;;
1779;SDS011;10019;46.670;14.260;2023-03-20T13:48:20;13.27;;;10.70;;
1779;SDS011;10019;46.670;14.260;2023-03-20T13:50:57;12.23;;;10.13;;
1779;SDS011;10019;46.670;14.260;2023-03-20T13:53:37;13.80;;;10.33;;
1779;SDS011;10019;46.670;14.260;2023-03-20T13:56:19;15.50;;;10.53;;
1779;SDS011;10019;46.670;14.260;2023-03-20T13:59:02;19.10;;;11.70;;
1779;SDS011;10019;46.670;14.260;2023-03-20T14:01:47;11.57;;;8.77;;
1779;SDS011;10019;46.670;14.260;2023-03-20T14:04:22;10.70;;;9.60;;
1779;SDS011;10019;46.670;14.260;2023-03-20T14:06:55;11.30;;;8.80;;
1779;SDS011;10019;46.670;14.260;2023-03-20T14:09:31;11.07;;;9.03;;
1779;SDS011;10019;46.670;14.260;2023-03-20T14:12:04;11.83;;;9.20;;
1779;SDS011;10019;46.670;14.260;2023-03-20T14:14:42;10.43;;;8.87;;
1779;SDS011;10019;46.670;14.260;2023-03-20T14:17:18;10.73;;;9.63;;
1779;SDS011;10019;46.670;14.260;2023-03-20T14:19:51;9.40;;;8.50;;
1779;SDS011;10019;46.670;14.260;2023-03-20T14:22:25;10.07;;;8.70;;
1779;SDS011;10019;46.670;14.260;2023-03-20T14:24:59;9.63;;;8.63;;
1779;SDS011;10019;46.670;14.260;2023-03-20T14:27:51;11.93;;;8.90;;
1779;SDS011;10019;46.670;14.260;2023-03-20T14:30:39;12.30;;;9.57;;
1779;SDS011;10019;46.670;14.260;2023-03-20T14:33:23;9.70;;;8.70;;
1779;SDS011;10019;46.670;14.260;2023-03-20T14:38:55;10.20;;;8.53;;
1779;SDS011;10019;46.670;14.260;2023-03-20T14:41:32;14.30;;;8.67;;
1779;SDS011;10019;46.670;14.260;2023-03-20T14:44:18;9.87;;;8.87;;
1779;SDS011;10019;46.670;14.260;2023-03-20T14:46:57;11.40;;;8.50;;
1779;SDS011;10019;46.670;14.260;2023-03-20T14:49:48;9.57;;;8.27;;
1779;SDS011;10019;46.670;14.260;2023-03-20T14:52:28;15.07;;;10.10;;
1779;SDS011;10019;46.670;14.260;2023-03-20T14:55:13;13.00;;;10.60;;
1779;SDS011;10019;46.670;14.260;2023-03-20T14:58:03;12.40;;;9.57;;
1779;SDS011;10019;46.670;14.260;2023-03-20T15:00:43;11.70;;;9.70;;
1779;SDS011;10019;46.670;14.260;2023-03-20T15:03:17;10.43;;;9.33;;
1779;SDS011;10019;46.670;14.260;2023-03-20T15:05:51;10.70;;;8.93;;
1779;SDS011;10019;46.670;14.260;2023-03-20T15:08:27;12.63;;;10.00;;
1779;SDS011;10019;46.670;14.260;2023-03-20T15:11:01;11.40;;;9.13;;
1779;SDS011;10019;46.670;14.260;2023-03-20T15:13:38;11.37;;;9.20;;
1779;SDS011;10019;46.670;14.260;2023-03-20T15:16:11;10.43;;;9.33;;
1779;SDS011;10019;46.670;14.260;2023-03-20T15:18:46;12.80;;;10.00;;
1779;SDS011;10019;46.670;14.260;2023-03-20T15:21:22;10.80;;;9.53;;
1779;SDS011;10019;46.670;14.260;2023-03-20T15:24:00;20.17;;;12.10;;
1779;SDS011;10019;46.670;14.260;2023-03-20T15:26:33;13.13;;;11.70;;
1779;SDS011;10019;46.670;14.260;2023-03-20T15:29:06;15.17;;;12.53;;
1779;SDS011;10019;46.670;14.260;2023-03-20T15:31:41;13.33;;;11.90;;
1779;SDS011;10019;46.670;14.260;2023-03-20T15:34:16;15.43;;;11.43;;
1779;SDS011;10019;46.670;14.260;2023-03-20T15:36:50;11.93;;;10.23;;